Time;durP1;ratioP1;P1;durP2;ratioP2;P2;SDS_P1;SDS_P2;PMS_P1;PMS_P2;Temp;Humidity;BMP_temperature;BMP_pressure;BME280_temperature;BME280_humidity;BME280_pressure;Samples;Min_cycle;Max_cycle;Signal;HPM_P1;HPM_P2
2021/10/25 00:00:06;;;;;;;32.10;16.50;;;;;;;1.96;69.14;101897.75;4976439;28;20022;-53
2021/10/25 00:02:31;;;;;;;38.30;17.70;;;;;;;1.92;69.18;101905.03;4985133;28;20430;-52
2021/10/25 00:04:57;;;;;;;43.88;19.25;;;;;;;1.90;69.29;101909.22;4980662;28;20123;-61
2021/10/25 00:07:22;;;;;;;40.22;18.70;;;;;;;1.86;69.68;101906.25;4976402;28;20025;-60
2021/10/25 00:09:48;;;;;;;43.42;18.58;;;;;;;1.80;69.67;101915.81;4988471;28;20480;-50
2021/10/25 00:12:13;;;;;;;36.50;18.00;;;;;;;1.77;69.18;101910.88;4976857;28;20023;-51
2021/10/25 00:14:39;;;;;;;38.75;19.05;;;;;;;1.73;69.47;101912.63;4976208;28;20033;-60
2021/10/25 00:17:04;;;;;;;36.67;18.60;;;;;;;1.70;69.31;101902.97;4976596;28;20034;-61
2021/10/25 00:19:31;;;;;;;37.83;17.92;;;;;;;1.65;69.44;101910.56;4990021;28;20022;-51
2021/10/25 00:21:56;;;;;;;36.65;16.45;;;;;;;1.60;69.53;101905.91;4976480;28;20030;-55
2021/10/25 00:24:22;;;;;;;32.35;15.88;;;;;;;1.61;69.76;101902.00;4976189;28;20114;-58
2021/10/25 00:26:47;;;;;;;28.40;15.60;;;;;;;1.60;69.83;101899.53;4976340;28;20058;-59
2021/10/25 00:29:13;;;;;;;23.58;12.85;;;;;;;1.59;69.76;101898.72;4976278;28;20038;-62
2021/10/25 00:31:38;;;;;;;26.45;13.57;;;;;;;1.59;69.50;101892.34;4982231;28;20030;-57
2021/10/25 00:34:04;;;;;;;23.48;13.98;;;;;;;1.57;69.49;101889.06;4995864;28;20019;-61
2021/10/25 00:36:30;;;;;;;25.90;14.35;;;;;;;1.48;69.86;101892.56;4976762;28;20029;-53
2021/10/25 00:38:56;;;;;;;25.73;14.20;;;;;;;1.41;70.62;101891.31;4976226;28;20291;-51
2021/10/25 00:41:21;;;;;;;24.35;12.93;;;;;;;1.36;70.58;101892.19;4976023;28;20054;-59
2021/10/25 00:43:46;;;;;;;23.52;12.48;;;;;;;1.37;70.55;101891.09;4976255;28;20025;-58
2021/10/25 00:46:12;;;;;;;29.02;13.38;;;;;;;1.37;70.44;101891.09;4975998;28;20037;-52
2021/10/25 00:48:38;;;;;;;32.28;16.63;;;;;;;1.43;70.06;101884.34;4976465;28;20081;-57
2021/10/25 00:51:09;;;;;;;43.72;19.38;;;;;;;1.47;69.81;101890.09;4981480;28;20022;-61
2021/10/25 00:53:35;;;;;;;52.78;21.45;;;;;;;1.50;69.31;101895.03;4995265;28;20418;-57
2021/10/25 00:56:03;;;;;;;41.10;21.05;;;;;;;1.51;69.46;101893.91;4996781;28;20041;-61
2021/10/25 00:58:29;;;;;;;41.78;18.63;;;;;;;1.54;70.00;101884.97;4999274;28;20072;-62
2021/10/25 01:00:54;;;;;;;33.20;15.95;;;;;;;1.53;69.42;101884.13;4998889;28;20113;-54
2021/10/25 01:03:20;;;;;;;25.75;12.90;;;;;;;1.52;69.42;101876.97;4999244;28;20055;-60
2021/10/25 01:05:45;;;;;;;27.77;13.60;;;;;;;1.52;68.86;101879.72;4998888;28;20026;-62
2021/10/25 01:08:11;;;;;;;31.15;14.85;;;;;;;1.51;69.15;101882.81;4998793;28;20053;-59
2021/10/25 01:10:37;;;;;;;32.03;15.85;;;;;;;1.48;68.98;101878.69;4998784;28;20030;-60
2021/10/25 01:13:03;;;;;;;33.58;15.43;;;;;;;1.45;69.08;101876.53;4998919;28;20030;-62
2021/10/25 01:15:31;;;;;;;28.88;14.70;;;;;;;1.42;68.97;101882.69;4997654;28;20026;-56
2021/10/25 01:17:59;;;;;;;27.67;14.57;;;;;;;1.35;69.12;101870.34;4997525;28;20022;-59
2021/10/25 01:20:27;;;;;;;30.00;15.23;;;;;;;1.31;69.53;101869.31;4998876;28;20037;-57
2021/10/25 01:22:53;;;;;;;29.00;15.57;;;;;;;1.31;70.16;101859.06;4998280;28;20026;-59
2021/10/25 01:25:19;;;;;;;27.50;14.85;;;;;;;1.30;69.96;101862.13;4998776;28;20023;-60
2021/10/25 01:27:44;;;;;;;26.52;13.73;;;;;;;1.28;70.11;101861.63;4984092;28;20023;-56
2021/10/25 01:30:10;;;;;;;26.42;15.38;;;;;;;1.26;69.86;101856.38;4986202;28;20023;-56
2021/10/25 01:32:36;;;;;;;23.38;12.15;;;;;;;1.22;69.89;101849.81;4998342;28;20402;-57
2021/10/25 01:35:01;;;;;;;21.27;11.65;;;;;;;1.23;69.96;101851.44;4984681;28;20026;-52
2021/10/25 01:37:27;;;;;;;23.02;11.65;;;;;;;1.23;69.84;101851.44;4998516;28;20057;-53
2021/10/25 01:39:52;;;;;;;17.30;10.20;;;;;;;1.22;69.98;101847.03;4997888;28;20121;-60
2021/10/25 01:42:18;;;;;;;15.68;10.13;;;;;;;1.22;70.35;101838.72;4998519;28;20034;-61
2021/10/25 01:44:43;;;;;;;19.20;9.93;;;;;;;1.24;70.36;101842.00;4998131;28;20060;-55
2021/10/25 01:47:09;;;;;;;18.10;9.20;;;;;;;1.28;69.89;101854.13;4998309;28;20399;-61
2021/10/25 01:49:35;;;;;;;20.20;10.13;;;;;;;1.27;69.60;101848.88;4998257;28;20034;-57
2021/10/25 01:52:00;;;;;;;18.83;10.35;;;;;;;1.22;69.85;101858.13;4997852;28;20030;-61
2021/10/25 01:54:26;;;;;;;21.75;11.02;;;;;;;1.14;69.81;101847.75;4998764;28;20295;-56
2021/10/25 01:56:52;;;;;;;25.75;10.85;;;;;;;1.09;70.30;101850.56;4997807;28;20449;-61
2021/10/25 01:59:17;;;;;;;19.80;10.85;;;;;;;1.02;70.36;101845.44;4998000;28;20022;-53
2021/10/25 02:01:44;;;;;;;22.55;11.50;;;;;;;0.97;70.69;101837.22;4998117;28;20030;-59
2021/10/25 02:04:09;;;;;;;19.23;10.38;;;;;;;0.96;70.97;101834.75;4998052;28;20018;-58
2021/10/25 02:06:35;;;;;;;22.52;11.13;;;;;;;0.96;70.94;101835.59;4997886;28;20088;-59
2021/10/25 02:09:00;;;;;;;22.77;10.93;;;;;;;0.96;70.74;101826.47;4997206;28;20029;-57
2021/10/25 02:11:26;;;;;;;17.77;9.90;;;;;;;0.98;70.76;101826.97;4997839;28;20029;-60
2021/10/25 02:13:52;;;;;;;19.02;9.43;;;;;;;1.02;70.71;101816.94;4997781;28;20072;-60
2021/10/25 02:16:17;;;;;;;16.48;9.88;;;;;;;1.07;70.68;101820.44;4996774;28;20065;-60
2021/10/25 02:18:43;;;;;;;21.52;10.60;;;;;;;1.13;70.65;101818.41;4997595;28;20083;-61
2021/10/25 02:21:10;;;;;;;20.55;10.45;;;;;;;1.19;70.01;101817.19;4997353;28;20105;-61
2021/10/25 02:23:36;;;;;;;20.27;10.13;;;;;;;1.26;69.93;101819.56;4997731;28;20030;-59
2021/10/25 02:26:01;;;;;;;22.00;11.15;;;;;;;1.30;69.65;101818.63;4997430;28;20029;-59
2021/10/25 02:28:27;;;;;;;23.63;10.85;;;;;;;1.32;69.84;101810.84;4997533;28;20019;-60
2021/10/25 02:30:53;;;;;;;27.40;11.40;;;;;;;1.34;70.03;101816.88;4997331;28;20062;-61
2021/10/25 02:33:20;;;;;;;19.45;11.15;;;;;;;1.34;69.39;101808.56;4997518;28;20108;-59
2021/10/25 02:35:46;;;;;;;22.85;10.40;;;;;;;1.29;69.12;101811.44;4983421;28;20127;-59
2021/10/25 02:38:11;;;;;;;21.90;10.82;;;;;;;1.23;69.09;101809.91;4983881;28;20097;-59
2021/10/25 02:40:37;;;;;;;24.33;11.23;;;;;;;1.20;69.41;101808.56;4997222;28;20103;-59
2021/10/25 02:43:02;;;;;;;20.55;9.77;;;;;;;1.19;69.71;101795.03;4996957;28;20035;-59
2021/10/25 02:45:28;;;;;;;23.02;9.77;;;;;;;1.18;70.02;101804.47;4986874;28;20018;-53
2021/10/25 02:47:54;;;;;;;22.35;12.45;;;;;;;1.16;69.85;101807.53;4993015;28;20365;-52
2021/10/25 02:50:20;;;;;;;16.90;9.80;;;;;;;1.17;70.03;101805.59;4994978;28;20030;-59
2021/10/25 02:52:45;;;;;;;19.40;10.73;;;;;;;1.14;69.64;101809.78;4982937;28;20131;-60
2021/10/25 02:55:11;;;;;;;22.08;10.23;;;;;;;1.12;70.02;101808.47;4996886;28;20064;-58
2021/10/25 02:57:37;;;;;;;20.17;10.48;;;;;;;1.10;69.96;101806.00;4994557;28;20448;-55
2021/10/25 03:00:08;;;;;;;22.27;10.65;;;;;;;1.05;70.39;101799.69;4991468;28;20034;-59
2021/10/25 03:02:34;;;;;;;23.70;11.40;;;;;;;1.06;70.01;101816.00;4980760;28;20090;-59
2021/10/25 03:04:59;;;;;;;15.70;9.75;;;;;;;1.04;69.56;101809.13;4992832;28;20348;-54
2021/10/25 03:07:25;;;;;;;16.90;10.43;;;;;;;1.00;69.78;101802.56;4985339;28;20041;-60
2021/10/25 03:09:50;;;;;;;18.75;9.98;;;;;;;0.95;70.16;101800.72;4986852;28;20042;-59
2021/10/25 03:12:16;;;;;;;18.23;10.60;;;;;;;0.92;70.35;101798.56;4987870;28;20030;-59
2021/10/25 03:14:43;;;;;;;21.38;11.60;;;;;;;0.95;70.54;101791.59;4981266;28;20019;-59
2021/10/25 03:17:09;;;;;;;56.22;24.13;;;;;;;0.96;70.56;101788.50;4981663;28;20110;-61
2021/10/25 03:19:34;;;;;;;65.95;28.13;;;;;;;1.00;70.75;101785.94;4988506;28;20406;-54
2021/10/25 03:22:00;;;;;;;49.63;24.80;;;;;;;1.03;70.96;101779.81;4987645;28;20041;-59
2021/10/25 03:24:25;;;;;;;29.60;15.45;;;;;;;1.10;70.22;101785.78;4996427;28;20050;-60
2021/10/25 03:26:50;;;;;;;26.45;12.57;;;;;;;1.16;70.10;101787.34;4991056;28;20030;-59
2021/10/25 03:29:16;;;;;;;27.65;12.90;;;;;;;1.16;70.58;101787.34;4986896;28;20030;-59
2021/10/25 03:31:42;;;;;;;21.98;12.07;;;;;;;1.19;70.75;101776.47;4982031;28;20031;-60
2021/10/25 03:34:07;;;;;;;28.85;13.77;;;;;;;1.20;70.92;101771.75;4979383;28;20019;-60
2021/10/25 03:36:34;;;;;;;28.98;15.43;;;;;;;1.23;72.18;101774.72;4994818;28;20026;-60
2021/10/25 03:38:59;;;;;;;24.48;13.82;;;;;;;1.26;72.19;101776.03;4990680;28;20026;-60
2021/10/25 03:41:35;;;;;;;25.58;14.75;;;;;;;1.30;72.32;101767.94;4980241;28;20100;-60
2021/10/25 03:44:36;;;;;;;24.05;12.93;;;;;;;1.33;72.59;101767.31;4976870;28;20061;-59
2021/10/25 03:47:04;;;;;;;27.23;12.68;;;;;;;1.32;72.36;101762.91;4996349;28;20042;-54
2021/10/25 03:49:38;;;;;;;23.05;13.30;;;;;;;1.30;72.03;101770.72;4982001;28;20125;-53
2021/10/25 03:52:28;;;;;;;26.75;13.98;;;;;;;1.23;71.56;101773.91;4984126;28;20078;-60
2021/10/25 03:55:00;;;;;;;26.38;14.10;;;;;;;1.15;71.81;101766.31;4985871;28;20104;-61
2021/10/25 03:57:46;;;;;;;27.50;12.90;;;;;;;1.13;71.75;101774.09;4981337;28;20422;-56
2021/10/25 04:00:31;;;;;;;27.33;13.50;;;;;;;1.10;71.98;101766.41;4989456;28;20069;-60
2021/10/25 04:30:15;;;;;;;33.35;18.02;;;;;;;1.20;73.29;101775.31;4981818;28;20027;-55
2021/10/25 04:32:40;;;;;;;33.75;17.58;;;;;;;1.18;72.99;101777.59;4987132;28;20046;-59
2021/10/25 04:35:07;;;;;;;25.38;14.90;;;;;;;1.11;72.43;101776.34;4986265;28;20128;-58
2021/10/25 04:37:32;;;;;;;38.83;14.93;;;;;;;1.06;72.21;101773.66;4990920;28;20029;-60
2021/10/25 04:39:58;;;;;;;25.90;14.65;;;;;;;1.03;72.50;101768.72;4983892;28;20342;-55
2021/10/25 04:42:23;;;;;;;26.60;14.75;;;;;;;0.97;72.56;101758.88;4986767;28;20018;-59
2021/10/25 04:44:48;;;;;;;28.65;14.95;;;;;;;0.89;73.04;101755.69;4986067;28;20033;-59
2021/10/25 04:47:15;;;;;;;28.80;14.93;;;;;;;0.84;73.48;101754.97;4991793;28;20022;-58
2021/10/25 04:49:41;;;;;;;34.28;17.20;;;;;;;0.80;73.23;101746.44;4986876;28;20027;-61
2021/10/25 04:52:07;;;;;;;33.83;16.35;;;;;;;0.78;73.32;101750.63;4989312;28;20042;-53
2021/10/25 04:54:33;;;;;;;30.95;16.65;;;;;;;0.71;73.25;101739.94;4990619;28;20114;-56
2021/10/25 04:56:59;;;;;;;33.88;17.20;;;;;;;0.69;72.88;101733.91;4993962;28;20149;-58
2021/10/25 04:59:25;;;;;;;23.30;13.70;;;;;;;0.67;73.57;101743.63;4993366;28;20026;-57
2021/10/25 05:01:51;;;;;;;27.23;14.82;;;;;;;0.69;73.55;101738.63;4998964;28;20053;-58
2021/10/25 05:04:16;;;;;;;26.85;13.82;;;;;;;0.70;73.98;101738.31;4999066;28;20057;-54
2021/10/25 05:06:42;;;;;;;30.88;14.95;;;;;;;0.73;74.02;101731.34;4999146;28;20100;-60
2021/10/25 05:09:07;;;;;;;32.38;16.73;;;;;;;0.80;75.14;101732.59;4998914;28;20146;-61
2021/10/25 05:11:33;;;;;;;34.53;17.50;;;;;;;0.97;75.90;101720.94;4991010;28;20061;-60
2021/10/25 05:13:58;;;;;;;34.83;18.00;;;;;;;1.13;76.67;101718.72;4998435;28;20026;-58
2021/10/25 05:16:24;;;;;;;37.72;17.67;;;;;;;1.26;76.58;101728.13;4998595;28;20026;-59
2021/10/25 05:18:50;;;;;;;36.60;17.58;;;;;;;1.32;76.05;101730.50;4998796;28;20026;-60
2021/10/25 05:21:15;;;;;;;37.70;19.15;;;;;;;1.33;75.73;101725.78;4998913;28;20023;-60
2021/10/25 05:23:41;;;;;;;37.72;19.23;;;;;;;1.29;75.28;101733.88;4998974;28;20031;-58
2021/10/25 05:26:06;;;;;;;43.75;20.77;;;;;;;1.27;75.02;101725.06;4998428;28;20426;-60
2021/10/25 05:28:32;;;;;;;33.33;18.60;;;;;;;1.29;75.25;101733.06;4998869;28;20022;-60
2021/10/25 05:30:57;;;;;;;40.30;18.45;;;;;;;1.27;75.28;101729.78;4997431;28;20058;-60
2021/10/25 05:33:23;;;;;;;36.75;20.42;;;;;;;1.26;75.23;101733.69;4990168;28;20030;-60
2021/10/25 05:35:48;;;;;;;36.55;18.52;;;;;;;1.27;75.35;101744.44;4981785;28;20022;-60
2021/10/25 05:38:13;;;;;;;33.97;19.83;;;;;;;1.28;75.23;101743.31;4979455;28;20030;-60
2021/10/25 05:40:40;;;;;;;34.40;19.10;;;;;;;1.31;75.26;101744.66;4983322;28;20086;-55
2021/10/25 05:43:07;;;;;;;32.22;18.48;;;;;;;1.34;75.23;101742.09;4982168;28;20426;-61
2021/10/25 05:45:32;;;;;;;32.97;18.20;;;;;;;1.38;75.13;101745.09;4982159;28;20110;-60
2021/10/25 05:47:58;;;;;;;27.17;15.82;;;;;;;1.41;75.16;101748.06;4981832;28;20101;-60
2021/10/25 05:50:24;;;;;;;26.45;15.45;;;;;;;1.44;75.26;101750.22;4981828;28;20097;-60
2021/10/25 05:52:49;;;;;;;34.50;16.60;;;;;;;1.52;75.87;101743.13;4984783;28;20018;-59
2021/10/25 05:55:21;;;;;;;23.58;14.20;;;;;;;1.61;75.62;101746.78;4981887;28;20318;-60
2021/10/25 05:57:46;;;;;;;;;;;;;;;1.73;75.65;101757.38;4984346;28;20073;-60
2021/10/25 06:00:13;;;;;;;24.50;14.00;;;;;;;1.83;75.57;101751.59;4994106;28;19910;-60
2021/10/25 06:02:38;;;;;;;23.55;13.75;;;;;;;1.95;75.26;101748.31;4998231;28;20065;-60
2021/10/25 06:05:06;;;;;;;25.15;12.80;;;;;;;2.08;74.79;101753.81;4997913;28;20026;-60
2021/10/25 06:07:32;;;;;;;26.20;14.00;;;;;;;2.23;74.66;101751.81;4997935;28;20037;-59
2021/10/25 06:09:58;;;;;;;26.77;14.30;;;;;;;2.39;74.40;101758.63;4998159;28;20022;-59
2021/10/25 06:12:25;;;;;;;30.88;16.58;;;;;;;2.59;74.06;101755.38;4997456;28;20023;-56
2021/10/25 06:14:51;;;;;;;27.88;15.75;;;;;;;2.78;73.17;101752.41;4997718;28;20402;-57
2021/10/25 06:17:23;;;;;;;26.48;14.43;;;;;;;2.98;72.21;101762.13;4997336;28;20369;-60
2021/10/25 06:19:49;;;;;;;32.38;20.35;;;;;;;3.17;72.34;101759.13;4997640;28;20033;-60
2021/10/25 06:22:18;;;;;;;32.53;17.92;;;;;;;3.32;71.61;101767.88;4986046;28;20023;-60
2021/10/25 06:24:44;;;;;;;31.80;21.92;;;;;;;3.51;71.06;101764.84;4981201;28;20038;-60
2021/10/25 06:27:10;;;;;;;31.08;20.25;;;;;;;3.73;70.94;101767.53;4983435;28;20031;-61
2021/10/25 06:29:35;;;;;;;35.20;20.58;;;;;;;3.97;69.51;101766.28;4978830;28;20018;-61
2021/10/25 06:32:01;;;;;;;31.35;20.10;;;;;;;4.16;69.43;101777.13;4982793;28;20067;-59
2021/10/25 06:34:32;;;;;;;25.33;15.98;;;;;;;4.42;69.31;101772.38;4984605;28;20418;-59
2021/10/25 06:36:58;;;;;;;24.77;14.55;;;;;;;4.63;67.96;101773.34;4991448;28;20030;-60
2021/10/25 06:39:30;;;;;;;22.60;13.18;;;;;;;4.85;67.53;101768.72;4981758;28;20030;-59
2021/10/25 06:41:56;;;;;;;18.95;13.00;;;;;;;5.02;66.80;101773.47;4985521;28;20042;-59
2021/10/25 06:44:22;;;;;;;18.67;12.05;;;;;;;5.19;66.33;101779.78;4981566;28;20019;-59
2021/10/25 06:46:48;;;;;;;35.88;19.17;;;;;;;5.41;65.56;101781.53;4981648;28;20113;-60
2021/10/25 06:49:13;;;;;;;39.10;21.30;;;;;;;5.62;65.40;101781.59;4984181;28;20072;-60
2021/10/25 06:51:39;;;;;;;27.95;14.65;;;;;;;5.87;63.81;101774.25;4982642;28;20034;-56
2021/10/25 06:54:05;;;;;;;27.42;13.57;;;;;;;6.08;64.60;101772.34;4989396;28;20489;-61
2021/10/25 06:56:32;;;;;;;30.25;13.75;;;;;;;6.38;64.25;101775.09;4983343;28;20041;-61
2021/10/25 06:58:57;;;;;;;43.03;19.85;;;;;;;6.64;62.00;101774.88;4981490;28;20106;-61
2021/10/25 07:01:25;;;;;;;27.75;15.57;;;;;;;6.81;61.65;101783.06;4988764;28;20109;-60
2021/10/25 07:03:52;;;;;;;58.70;25.08;;;;;;;6.92;61.96;101781.50;4979809;28;20019;-60
2021/10/25 07:06:18;;;;;;;29.15;14.73;;;;;;;7.06;61.43;101778.38;4978041;28;20411;-61
2021/10/25 07:08:45;;;;;;;40.85;19.33;;;;;;;7.26;59.67;101782.28;4982854;28;20106;-60
2021/10/25 07:11:14;;;;;;;46.35;19.02;;;;;;;7.36;60.64;101782.63;4983160;28;20018;-53
2021/10/25 07:13:45;;;;;;;87.15;33.75;;;;;;;7.50;59.90;101782.31;4979695;28;20422;-61
2021/10/25 08:07:41;;;;;;;17.10;8.05;;;;;;;9.71;55.03;101775.63;4982456;28;20260;-61
2021/10/25 08:10:18;;;;;;;17.17;8.70;;;;;;;9.64;55.11;101771.84;4988708;28;20037;-62
2021/10/25 08:12:51;;;;;;;18.35;8.07;;;;;;;9.64;54.88;101771.84;4987912;28;20032;-61
2021/10/25 08:15:23;;;;;;;19.60;8.70;;;;;;;9.68;56.08;101779.16;4990666;28;20418;-54
2021/10/25 08:17:53;;;;;;;15.43;9.23;;;;;;;9.75;54.94;101779.31;4986781;28;20073;-49
2021/10/25 08:20:18;;;;;;;15.73;9.52;;;;;;;9.80;55.31;101783.84;4978084;28;20030;-61
2021/10/25 08:22:44;;;;;;;22.17;9.80;;;;;;;9.83;54.31;101785.94;4979341;28;20019;-56
2021/10/25 08:25:11;;;;;;;21.77;10.20;;;;;;;9.88;54.82;101777.25;4991358;28;20353;-62
2021/10/25 08:27:37;;;;;;;18.35;10.05;;;;;;;9.96;54.49;101787.47;4979604;28;20324;-56
2021/10/25 08:30:05;;;;;;;18.77;9.98;;;;;;;10.16;55.41;101777.91;4977483;28;20019;-62
2021/10/25 08:40:38;;;;;;;20.17;8.98;;;;;;;10.78;53.65;101776.06;4982520;28;20106;-55
2021/10/25 08:43:05;;;;;;;20.85;8.90;;;;;;;10.96;52.84;101786.88;4985718;28;20034;-63
2021/10/25 08:45:33;;;;;;;18.85;9.20;;;;;;;11.09;51.74;101774.25;4983799;28;20022;-51
2021/10/25 08:47:58;;;;;;;16.13;8.38;;;;;;;11.19;51.29;101773.63;4989606;28;20026;-54
2021/10/25 08:50:29;;;;;;;9.88;6.47;;;;;;;11.25;51.59;101777.78;4981867;28;20026;-61
2021/10/25 08:52:56;;;;;;;14.27;6.43;;;;;;;11.42;50.09;101770.84;4991384;28;20417;-56
2021/10/25 08:55:22;;;;;;;10.63;6.32;;;;;;;11.52;50.19;101772.25;4982176;28;20037;-57
2021/10/25 08:57:49;;;;;;;8.80;5.50;;;;;;;11.65;49.69;101773.66;4991842;28;20034;-64
2021/10/25 09:00:19;;;;;;;11.68;6.05;;;;;;;11.72;49.26;101771.75;4991985;28;20026;-55
2021/10/25 09:02:59;;;;;;;8.88;5.47;;;;;;;11.95;49.58;101768.94;4995476;28;20315;-62
2021/10/25 09:05:26;;;;;;;8.32;5.47;;;;;;;12.19;49.34;101761.25;4993387;28;20439;-64
2021/10/25 09:08:00;;;;;;;9.50;6.22;;;;;;;12.37;48.53;101762.31;4995308;28;20045;-48
2021/10/25 09:10:28;;;;;;;11.60;5.95;;;;;;;12.52;48.69;101760.50;4995273;28;20049;-63
2021/10/25 09:13:03;;;;;;;10.77;5.90;;;;;;;12.59;48.32;101764.19;4995229;28;20355;-50
2021/10/25 09:15:32;;;;;;;10.57;5.53;;;;;;;12.66;48.53;101771.97;4994865;28;20042;-62
2021/10/25 09:17:59;;;;;;;8.95;5.53;;;;;;;12.72;48.00;101759.13;4996349;28;20038;-63
2021/10/25 09:20:25;;;;;;;11.38;5.47;;;;;;;12.83;46.41;101762.06;4998736;28;20018;-59
2021/10/25 09:23:06;;;;;;;14.45;6.70;;;;;;;12.92;47.28;101756.97;4998635;28;20014;-62
2021/10/25 09:25:33;;;;;;;11.73;6.40;;;;;;;12.96;47.01;101746.53;4994694;28;20033;-62
2021/10/25 09:27:58;;;;;;;11.68;5.28;;;;;;;13.00;47.98;101739.72;4998547;28;20022;-63
2021/10/25 09:30:25;;;;;;;8.52;5.55;;;;;;;13.09;47.49;101736.56;4998335;28;20030;-58
2021/10/25 09:32:51;;;;;;;9.43;5.30;;;;;;;13.16;47.26;101742.31;4987129;28;20034;-56
2021/10/25 09:35:24;;;;;;;11.45;5.07;;;;;;;13.14;47.50;101741.84;4981538;28;20030;-55
2021/10/25 09:37:57;;;;;;;9.20;5.05;;;;;;;13.13;47.65;101730.97;4991189;28;20496;-64
2021/10/25 09:40:30;;;;;;;10.35;5.88;;;;;;;13.16;48.24;101725.38;4991803;28;20371;-52
2021/10/25 09:43:20;;;;;;;9.13;5.22;;;;;;;13.25;48.31;101736.38;4982170;28;20026;-58
2021/10/25 09:45:59;;;;;;;9.35;5.13;;;;;;;13.29;47.94;101729.56;4991057;28;20034;-62
2021/10/25 09:50:52;;;;;;;10.55;5.70;;;;;;;13.41;48.91;101733.28;4992353;28;20061;-51
2021/10/25 09:53:31;;;;;;;13.05;6.05;;;;;;;13.41;48.07;101727.63;4998145;28;20022;-55
2021/10/25 09:55:57;;;;;;;12.18;5.80;;;;;;;13.43;48.86;101726.06;4990470;28;20443;-63
2021/10/25 09:58:26;;;;;;;9.75;6.15;;;;;;;13.50;48.30;101728.13;4979474;28;20031;-62
2021/10/25 10:00:53;;;;;;;15.25;6.30;;;;;;;13.46;48.09;101725.28;4993108;28;20029;-61
2021/10/25 10:03:19;;;;;;;10.10;5.88;;;;;;;13.46;49.26;101721.63;4978481;28;20061;-62
2021/10/25 10:05:44;;;;;;;11.35;5.63;;;;;;;13.53;48.51;101719.69;4982440;28;20408;-63
2021/10/25 10:08:13;;;;;;;10.98;5.82;;;;;;;13.55;48.71;101722.09;4995292;28;20044;-51
2021/10/25 10:10:39;;;;;;;10.13;4.78;;;;;;;13.60;49.38;101718.91;4989482;28;20081;-62
2021/10/25 10:13:05;;;;;;;8.18;5.35;;;;;;;13.67;48.20;101707.66;4985906;28;20041;-54
2021/10/25 10:15:34;;;;;;;11.95;5.47;;;;;;;13.70;48.79;101698.44;5011031;28;20342;-61
2021/10/25 10:18:13;;;;;;;9.48;5.63;;;;;;;13.76;48.25;101699.66;4993842;28;20030;-63
2021/10/25 10:20:41;;;;;;;14.35;6.07;;;;;;;13.83;47.62;101696.88;4990871;28;20019;-61
2021/10/25 10:23:11;;;;;;;13.85;5.97;;;;;;;13.85;48.15;101700.13;4994232;28;20014;-63
2021/10/25 10:25:46;;;;;;;11.27;5.88;;;;;;;13.92;46.98;101711.47;4995275;28;20044;-60
2021/10/25 10:28:13;;;;;;;16.27;8.43;;;;;;;13.92;47.68;101702.19;4986734;28;20069;-61
2021/10/25 10:30:58;;;;;;;11.48;5.70;;;;;;;13.89;47.80;101692.47;4990977;28;20442;-60
2021/10/25 10:33:39;;;;;;;10.80;5.05;;;;;;;13.91;48.14;101678.75;4993374;28;20089;-60
2021/10/25 10:36:31;;;;;;;12.73;6.03;;;;;;;14.05;47.43;101671.59;4991015;28;20121;-60
2021/10/25 10:39:10;;;;;;;6.70;5.15;;;;;;;14.11;47.43;101665.16;4994365;28;20077;-59
2021/10/25 10:41:43;;;;;;;12.05;5.55;;;;;;;14.21;46.76;101657.91;4991294;28;20039;-49
2021/10/25 10:44:11;;;;;;;7.78;4.85;;;;;;;14.25;47.13;101667.25;4981992;28;20327;-62
2021/10/25 10:46:40;;;;;;;12.88;5.53;;;;;;;14.33;46.63;101659.59;4986206;28;20026;-60
2021/10/25 10:49:19;;;;;;;9.82;5.82;;;;;;;14.37;46.41;101655.56;4998111;28;20165;-59
2021/10/25 10:51:45;;;;;;;10.68;5.50;;;;;;;14.38;46.98;101651.53;4980753;28;20049;-58
2021/10/25 10:54:21;;;;;;;9.55;5.00;;;;;;;14.43;45.88;101647.53;4985075;28;20398;-51
2021/10/25 10:57:04;;;;;;;11.23;5.40;;;;;;;14.49;46.74;101651.59;4981064;28;20033;-60
2021/10/25 10:59:36;;;;;;;20.58;5.80;;;;;;;14.57;45.23;101646.78;4984901;28;20045;-62
2021/10/25 11:02:02;;;;;;;12.68;4.85;;;;;;;14.66;44.35;101650.03;4985194;28;20322;-60
2021/10/25 11:04:33;;;;;;;9.95;4.63;;;;;;;14.60;44.60;101646.78;4987397;28;20063;-56
2021/10/25 11:07:00;;;;;;;10.43;5.13;;;;;;;14.55;44.74;101643.53;4981233;28;20026;-59
2021/10/25 11:09:31;;;;;;;8.80;4.32;;;;;;;14.57;45.07;101652.44;4985562;28;20034;-52
2021/10/25 11:12:09;;;;;;;11.13;5.43;;;;;;;14.57;44.93;101630.63;4985085;28;20513;-60
2021/10/25 11:14:37;;;;;;;9.55;4.25;;;;;;;14.58;45.40;101628.59;4982373;28;20042;-56
2021/10/25 11:17:15;;;;;;;5.47;4.05;;;;;;;14.56;43.93;101616.88;4982470;28;20092;-59
2021/10/25 11:19:51;;;;;;;12.38;4.53;;;;;;;14.59;43.55;101624.56;4984811;28;20031;-57
2021/10/25 11:22:34;;;;;;;7.30;4.35;;;;;;;14.64;43.98;101612.84;4992408;28;20030;-58
2021/10/25 11:25:02;;;;;;;9.20;4.55;;;;;;;14.68;43.85;101622.94;4980929;28;20457;-60
2021/10/25 11:27:32;;;;;;;15.02;4.20;;;;;;;14.68;43.63;101597.47;4981005;28;20031;-60
2021/10/25 11:30:17;;;;;;;7.55;4.60;;;;;;;14.78;44.60;101602.34;4984414;28;20034;-60
2021/10/25 11:32:45;;;;;;;11.45;4.32;;;;;;;14.88;43.61;101600.75;4984349;28;20373;-60
2021/10/25 11:35:13;;;;;;;7.78;3.75;;;;;;;14.90;43.54;101598.31;4987019;28;20104;-57
2021/10/25 11:37:53;;;;;;;8.85;3.78;;;;;;;14.97;42.97;101592.66;4977332;28;20437;-59
2021/10/25 11:40:23;;;;;;;8.13;4.43;;;;;;;15.05;42.93;101593.44;5005992;28;20077;-59
2021/10/25 11:42:49;;;;;;;13.18;4.90;;;;;;;15.06;42.61;101592.25;5028811;28;20033;-59
2021/10/25 11:45:17;;;;;;;5.40;3.35;;;;;;;15.10;42.82;101596.72;5030313;28;20033;-59
2021/10/25 11:47:45;;;;;;;20.90;5.40;;;;;;;15.11;43.02;101587.00;5022180;28;20026;-60
2021/10/25 11:50:17;;;;;;;16.10;5.28;;;;;;;15.18;42.76;101585.38;5024562;28;20028;-51
2021/10/25 11:52:44;;;;;;;12.70;4.45;;;;;;;15.28;42.81;101581.72;5022389;28;20034;-58
2021/10/25 11:55:11;;;;;;;5.95;3.65;;;;;;;15.31;42.50;101569.56;5024793;28;20348;-59
2021/10/25 11:57:44;;;;;;;4.90;3.40;;;;;;;15.28;42.71;101576.03;5019931;28;20076;-60
2021/10/25 12:00:11;;;;;;;12.15;4.45;;;;;;;15.34;42.13;101571.56;5033888;28;20160;-58
2021/10/25 12:02:37;;;;;;;7.30;3.63;;;;;;;15.40;42.33;101562.28;5023568;28;20071;-57
2021/10/25 12:05:04;;;;;;;6.28;3.65;;;;;;;15.43;42.91;101558.63;5025279;28;20044;-59
2021/10/25 12:07:30;;;;;;;10.88;3.90;;;;;;;15.53;42.59;101559.00;5027529;28;20029;-59
2021/10/25 12:10:06;;;;;;;6.65;3.70;;;;;;;15.60;41.94;101556.97;5030264;28;20156;-60
2021/10/25 12:12:32;;;;;;;9.00;3.80;;;;;;;15.59;41.48;101557.41;5022868;28;20022;-60
2021/10/25 12:15:01;;;;;;;6.80;3.85;;;;;;;15.61;41.65;101543.63;5030485;28;20022;-61
2021/10/25 12:17:36;;;;;;;8.60;4.15;;;;;;;15.60;41.94;101539.16;5025546;28;20074;-52
2021/10/25 12:20:05;;;;;;;6.72;3.75;;;;;;;15.59;42.46;101532.69;5022106;28;20030;-60
2021/10/25 12:22:30;;;;;;;8.05;3.55;;;;;;;15.66;42.36;101538.34;5029234;28;20588;-60
2021/10/25 12:24:57;;;;;;;8.07;3.90;;;;;;;15.71;42.23;101525.78;5023724;28;20033;-61
2021/10/25 12:27:32;;;;;;;7.38;3.25;;;;;;;15.74;42.20;101528.59;5022363;28;20105;-61
2021/10/25 12:30:09;;;;;;;9.68;4.50;;;;;;;15.82;42.42;101520.88;5022011;28;20088;-60
2021/10/25 12:32:48;;;;;;;5.82;3.83;;;;;;;15.88;41.53;101515.56;5021708;28;20033;-48
2021/10/25 12:35:14;;;;;;;7.97;4.13;;;;;;;15.90;41.27;101510.31;5022244;28;20060;-54
2021/10/25 12:37:39;;;;;;;8.85;3.90;;;;;;;15.85;41.22;101507.91;5024617;28;20394;-54
2021/10/25 12:40:16;;;;;;;9.18;4.07;;;;;;;15.82;42.11;101500.22;5026159;28;20364;-59
2021/10/25 12:42:42;;;;;;;6.82;3.58;;;;;;;15.83;41.71;101504.66;5023258;28;20869;-57
2021/10/25 12:45:20;;;;;;;6.50;3.63;;;;;;;15.86;41.33;101509.50;5031479;28;20029;-56
2021/10/25 12:47:47;;;;;;;9.85;4.05;;;;;;;15.85;41.06;101505.06;5030790;28;20021;-54
2021/10/25 12:50:15;;;;;;;5.82;3.35;;;;;;;15.76;41.43;101500.66;5034326;28;20360;-56
2021/10/25 12:52:43;;;;;;;10.55;3.35;;;;;;;15.72;42.03;101491.34;5015006;28;20663;-56